Latest Weather Observations for Double Island Point

IDQ60901

Issued at 3:41 pm EST Sunday 15 September 2019 (issued every 10 minutes, with the page automatically refreshed every 10 minutes)

About weather observations | Map of Brisbane area stations | Latest observations for Brisbane area | Other Formats
Station Details ID: 040068 Name: DOUBLE ISLAND POINT LIGHTHOUSE Lat: -25.93 Lon: 153.19 Height: 95.64 m
Data from the previous 72 hours. | See also: Recent months at Double Island Point
Date/Time
EST
Temp
°C
App
Temp
°C
Dew
Point
°C
Rel
Hum
%
Delta-T
°C
Wind Press
QNH
hPa
Press
MSL
hPa
Rain since
9am
mm
Dir  Spd
km/h
Gust
km/h
Spd
kts
Gust
kts
15/03:30pm 21.0 19.0 12.7 59 4.7 ESE 15 19 8 10 1023.0 1022.8 0.0
15/03:00pm 21.5 19.7 13.2 59 4.8 E 15 20 8 11 1022.8 1022.6 0.0
15/02:30pm 22.0 20.3 13.6 59 4.9 E 15 20 8 11 1022.9 1022.7 0.0
15/02:00pm 22.7 21.0 14.8 61 4.7 E 17 20 9 11 1023.0 1022.8 0.0
15/01:30pm 22.4 20.5 14.3 60 4.8 ESE 17 20 9 11 1023.5 1023.3 0.0
15/01:00pm 22.7 20.9 14.5 60 4.8 ESE 17 20 9 11 1024.0 1023.8 0.0
15/12:30pm 22.4 20.3 14.8 62 4.5 ESE 19 22 10 12 1023.9 1023.7 0.0
15/12:00pm 22.5 20.2 14.6 61 4.7 ESE 20 24 11 13 1024.2 1024.0 0.0
15/11:30am 22.1 19.6 14.2 61 4.6 ESE 20 26 11 14 1024.7 1024.4 0.0
15/11:00am 22.1 19.4 14.5 62 4.5 ESE 22 26 12 14 1024.7 1024.4 0.0
15/10:30am 22.4 20.0 15.3 64 4.3 ESE 22 28 12 15 1024.8 1024.5 0.0
15/10:00am 22.2 19.7 15.1 64 4.2 ESE 22 28 12 15 1025.0 1024.7 0.0
15/09:30am 22.2 19.4 15.3 65 4.1 ESE 24 28 13 15 1025.1 1024.8 0.0
15/09:00am 22.2 19.8 15.5 66 4.0 ESE 22 26 12 14 1025.3 1025.0 0.0
15/08:30am 21.5 17.7 14.6 65 4.1 ESE 28 32 15 17 1025.2 1024.9 0.0
15/08:00am 21.1 17.8 15.0 68 3.6 ESE 26 30 14 16 1025.0 1024.7 0.0
15/07:30am 20.6 16.7 14.5 68 3.6 ESE 28 33 15 18 1024.7 1024.4 0.0
15/07:00am 19.7 15.2 13.9 69 3.3 ESE 30 33 16 18 1024.1 1023.9 0.0
15/06:30am 19.3 14.8 13.9 71 3.1 SE 30 35 16 19 1023.5 1023.3 0.0
15/06:00am 18.8 14.4 14.1 74 2.7 SE 30 35 16 19 1023.1 1022.9 0.0
15/05:30am 18.7 13.9 14.0 74 2.7 SE 32 39 17 21 1022.7 1022.5 0.0
15/05:00am 18.9 13.5 15.0 78 2.3 SE 37 43 20 23 1022.3 1022.1 0.0
15/04:30am 18.8 13.4 15.1 79 2.2 SE 37 43 20 23 1022.1 1021.9 0.0
15/04:00am 19.0 12.9 15.3 79 2.2 SE 41 44 22 24 1021.8 1021.6 0.0
15/03:30am 18.9 12.7 15.0 78 2.3 SE 41 46 22 25 1021.4 1021.2 0.0
15/03:00am 19.0 13.0 14.5 75 2.6 SE 39 43 21 23 1021.4 1021.2 0.0
15/02:30am 19.1 13.9 14.6 75 2.6 SE 35 41 19 22 1021.4 1021.2 0.0
15/02:00am 19.2 15.0 16.1 82 1.8 SE 33 37 18 20 1021.7 1021.5 0.0
15/01:30am 19.2 14.9 17.0 87 1.3 SE 35 39 19 21 1021.9 1021.7 0.0
15/01:00am 18.7 16.2 16.1 85 1.5 SSE 24 30 13 16 1022.2 1022.0 0.0
15/12:30am 18.6 15.8 16.4 87 1.3 S 26 30 14 16 1022.4 1022.2 0.0
15/12:00am 18.6 15.3 15.1 80 2.0 S 26 32 14 17 1022.5 1022.3 0.0
 
Date/Time
EST
Temp
°C
App
Temp
°C
Dew
Point
°C
Rel
Hum
%
Delta-T
°C
Wind Press
QNH
hPa
Press
MSL
hPa
Rain since
9am
mm
Dir  Spd
km/h
Gust
km/h
Spd
kts
Gust
kts
14/11:30pm 17.8 14.6 12.0 69 3.2 SSW 20 26 11 14 1022.5 1022.3 0.0
14/11:00pm 17.7 16.0 12.6 72 2.8 NW 13 15 7 8 1022.2 1022.0 0.0
14/10:30pm 18.7 16.5 13.3 71 3.1 NW 17 20 9 11 1022.0 1021.8 0.0
14/10:00pm 17.9 14.2 10.3 61 4.1 NW 20 22 11 12 1021.5 1021.3 0.0
14/09:30pm 18.3 16.0 14.6 79 2.1 NNW 20 24 11 13 1021.4 1021.2 0.0
14/09:00pm 19.3 18.0 17.3 88 1.2 NNW 20 24 11 13 1021.4 1021.2 0.0
14/08:30pm 19.2 19.0 16.8 86 1.5 N 13 22 7 12 1021.2 1020.9 0.0
14/08:00pm 19.4 20.5 17.0 86 1.5 N 7 15 4 8 1021.2 1020.9 0.0
14/07:30pm 19.5 20.5 16.9 85 1.6 N 7 19 4 10 1020.9 1020.6 0.0
14/07:00pm 19.6 21.5 16.6 83 1.8 N 2 7 1 4 1020.6 1020.3 0.0
14/06:30pm 19.8 21.7 16.6 82 1.9 NNE 2 7 1 4 1020.2 1019.9 0.0
14/06:00pm 20.0 20.8 16.4 80 2.2 NNE 7 13 4 7 1019.8 1019.5 0.0
14/05:30pm 20.8 21.2 16.4 76 2.7 N 9 19 5 10 1019.7 1019.4 0.0
14/05:00pm 22.0 22.2 16.7 72 3.2 N 11 24 6 13 1019.3 1019.0 0.0
14/04:30pm 23.1 21.7 16.9 68 3.8 NNE 20 22 11 12 1019.2 1018.9 0.0
14/04:00pm 24.2 24.0 16.7 63 4.6 NNE 13 19 7 10 1019.1 1018.8 0.0
14/03:30pm 24.9 25.4 16.6 60 5.1 NE 9 17 5 9 1019.0 1018.7 0.0
14/03:00pm 24.9 25.5 16.9 61 5.0 NE 9 17 5 9 1019.1 1018.8 0.0
14/02:30pm 23.7 23.5 15.7 61 4.8 ENE 11 17 6 9 1019.2 1018.9 0.0
14/02:00pm 22.6 22.1 15.0 62 4.5 ENE 11 15 6 8 1019.8 1019.5 0.0
14/01:30pm 22.6 21.8 15.2 63 4.4 ENE 13 17 7 9 1020.0 1019.7 0.0
14/01:00pm 23.1 22.9 15.7 63 4.5 ENE 11 15 6 8 1020.3 1020.0 0.0
14/12:30pm 22.8 22.7 15.9 65 4.2 ENE 11 15 6 8 1020.9 1020.6 0.0
14/12:00pm 23.0 22.9 16.1 65 4.2 ENE 11 15 6 8 1021.4 1021.2 0.0
14/11:30am 22.4 22.7 16.0 67 3.9 ENE 9 11 5 6 1021.7 1021.5 0.0
14/11:00am 22.9 23.3 16.2 66 4.1 SE 9 11 5 6 1022.2 1022.0 0.0
14/10:30am 22.0 22.7 16.1 69 3.6 SSE 7 11 4 6 1022.6 1022.4 0.0
14/10:00am 22.1 23.7 16.8 72 3.2 SSE 4 11 2 6 1022.7 1022.5 0.0
14/09:30am 21.3 22.5 17.3 78 2.5 SSE 7 11 4 6 1022.7 1022.5 0.0
14/09:00am 19.5 19.0 16.0 80 2.1 S 13 19 7 10 1023.0 1022.8 0.0
14/08:30am 19.0 17.8 16.0 83 1.8 S 17 22 9 12 1023.2 1023.0 0.0
14/08:00am 18.5 17.0 16.3 87 1.3 S 19 24 10 13 1023.1 1022.9 0.0
14/07:30am 17.8 16.0 16.1 90 1.0 S 20 24 11 13 1022.7 1022.5 0.0
14/07:00am 17.2 15.6 16.1 93 0.7 SSW 19 22 10 12 1022.3 1022.1 0.0
14/06:30am 16.6 14.3 15.6 94 0.6 S 22 26 12 14 1022.1 1021.9 0.0
14/06:00am 16.6 14.3 15.6 94 0.6 S 22 24 12 13 1021.7 1021.5 0.0
14/05:30am 16.6 14.3 15.6 94 0.6 S 22 24 12 13 1021.4 1021.2 0.0
14/05:00am 16.8 14.9 15.7 93 0.6 SSW 20 24 11 13 1021.3 1021.0 0.0
14/04:30am 16.9 14.3 15.8 93 0.6 SSW 24 24 13 13 1021.2 1020.9 0.0
14/04:00am 17.0 15.2 15.9 93 0.6 SSW 20 22 11 12 1021.0 1020.7 0.0
14/03:30am 17.0 14.8 15.9 93 0.7 SSW 22 24 12 13 1021.0 1020.7 0.0
14/03:00am 17.0 15.1 15.7 92 0.8 SSW 20 24 11 13 1021.3 1021.0 0.0
14/02:30am 17.2 14.5 15.7 91 0.9 SSW 24 28 13 15 1021.5 1021.3 0.0
14/02:00am 17.3 14.6 15.5 89 1.1 SSW 24 28 13 15 1021.6 1021.4 0.0
14/01:30am 17.4 14.2 15.2 87 1.3 SSW 26 30 14 16 1021.9 1021.7 0.0
14/01:00am 17.7 14.2 14.4 81 1.9 SSW 26 32 14 17 1022.0 1021.8 0.0
14/12:30am 19.3 16.9 14.3 73 2.9 SSE 20 26 11 14 1022.2 1022.0 0.0
14/12:00am 19.3 16.7 13.9 71 3.1 SSE 20 24 11 13 1022.2 1022.0 0.0
 
Date/Time
EST
Temp
°C
App
Temp
°C
Dew
Point
°C
Rel
Hum
%
Delta-T
°C
Wind Press
QNH
hPa
Press
MSL
hPa
Rain since
9am
mm
Dir  Spd
km/h
Gust
km/h
Spd
kts
Gust
kts
13/11:30pm 19.3 16.8 14.1 72 3.0 SSE 20 22 11 12 1022.2 1022.0 0.0
13/11:00pm 19.4 17.0 13.8 70 3.2 SSE 19 22 10 12 1022.3 1022.1 0.0
13/10:30pm 19.6 17.1 14.0 70 3.2 SE 20 22 11 12 1022.2 1022.0 0.0
13/10:00pm 19.6 16.9 13.5 68 3.5 SE 20 22 11 12 1022.2 1022.0 0.0
13/09:30pm 19.9 15.9 12.9 64 4.0 SSE 26 28 14 15 1022.1 1021.9 0.0
13/09:00pm 20.1 16.0 12.8 63 4.1 SSE 26 30 14 16 1022.0 1021.8 0.0
13/08:30pm 20.4 15.2 11.6 57 4.9 SE 30 33 16 18 1021.6 1021.4 0.0
13/08:00pm 19.9 17.0 12.2 61 4.3 SSE 19 20 10 11 1021.3 1021.0 0.0
13/07:30pm 20.6 18.5 11.2 55 5.2 E 13 17 7 9 1021.2 1020.9 0.0
13/07:00pm 20.7 19.3 10.8 53 5.4 E 9 15 5 8 1020.9 1020.6 0.0
13/06:30pm 21.0 19.7 11.1 53 5.5 E 9 11 5 6 1020.4 1020.1 0.0
13/06:00pm 21.5 19.2 9.1 45 6.6 E 11 15 6 8 1019.9 1019.6 0.0
13/05:30pm 21.4 19.7 12.5 57 5.1 E 13 13 7 7 1019.4 1019.1 0.0
13/05:00pm 23.1 22.5 13.6 55 5.5 E 9 11 5 6 1019.1 1018.8 0.0
13/04:30pm 22.4 19.9 10.9 48 6.4 E 15 17 8 9 1018.8 1018.5 0.0
13/04:00pm 22.9 20.5 12.5 52 5.9 E 17 20 9 11 1018.7 1018.4 0.0
13/03:30pm 23.5 21.4 12.5 50 6.3 ENE 15 19 8 10 1018.5 1018.2 0.0
13/03:00pm 25.1 24.3 13.9 49 6.6 ESE 11 15 6 8 1018.3 1018.0 0.0
13/02:30pm 24.4 20.9 8.8 37 8.4 ESE 17 20 9 11 1018.3 1018.0 0.0
13/02:00pm 24.5 22.3 10.8 42 7.7 N 13 15 7 8 1018.4 1018.1 0.0
13/01:30pm 24.6 23.5 10.5 41 7.9 N 7 9 4 5 1018.6 1018.3 0.0
13/01:00pm 25.0 24.9 13.2 48 6.9 N 6 11 3 6 1019.1 1018.8 0.0
13/12:30pm 25.2 25.4 14.6 51 6.3 N 7 9 4 5 1019.3 1019.0 0.0
13/12:00pm 25.4 24.4 14.5 51 6.5 N 13 17 7 9 1019.7 1019.4 0.0
13/11:30am 24.8 22.9 15.1 54 5.8 NNW 19 26 10 14 1020.1 1019.8 0.0
13/11:00am 24.3 21.3 11.9 45 7.0 NW 19 28 10 15 1020.6 1020.3 0.0
13/10:30am 23.5 21.1 15.3 60 4.9 NNW 22 32 12 17 1021.1 1020.8 0.0
13/10:00am 21.5 17.9 12.9 58 4.9 NW 24 30 13 16 1021.5 1021.3 0.0
13/09:30am 20.0 15.2 13.9 68 3.5 NW 32 39 17 21 1021.7 1021.5 0.0
13/09:00am 18.7 12.6 14.0 74 2.7 WNW 39 48 21 26 1021.6 1021.4 0.0
13/08:30am 18.2 12.2 14.3 78 2.3 WNW 39 48 21 26 1021.9 1021.7 0.0
13/08:00am 17.8 12.5 14.1 79 2.1 WNW 35 50 19 27 1021.8 1021.6 0.0
13/07:30am 17.4 12.6 14.1 81 1.9 WNW 32 39 17 21 1021.9 1021.7 0.0
13/07:00am 16.9 12.9 14.0 83 1.6 WNW 28 33 15 18 1021.9 1021.7 0.0
13/06:30am 16.5 12.5 14.0 85 1.4 WNW 28 35 15 19 1021.7 1021.5 0.0
13/06:00am 16.4 12.3 13.9 85 1.4 WNW 28 35 15 19 1021.4 1021.2 0.0
13/05:30am 16.4 12.7 13.9 85 1.4 WNW 26 35 14 19 1021.3 1021.0 0.0
13/05:00am 16.2 12.1 13.7 85 1.4 WNW 28 35 15 19 1021.3 1021.0 0.0
13/04:30am 16.5 12.5 14.0 85 1.4 NW 28 35 15 19 1021.2 1020.9 0.0
13/04:00am 16.4 12.3 13.9 85 1.4 NW 28 35 15 19 1021.2 1020.9 0.0
13/03:30am 16.3 12.9 13.6 84 1.5 NW 24 32 13 17 1021.4 1021.2 0.0
13/03:00am 16.2 12.3 13.3 83 1.6 NW 26 32 14 17 1021.5 1021.3 0.0
13/02:30am 16.2 12.6 13.1 82 1.7 WNW 24 30 13 16 1021.8 1021.6 0.0
13/02:00am 16.4 12.9 13.3 82 1.7 NW 24 33 13 18 1022.0 1021.8 0.0
13/01:30am 16.3 11.5 13.0 81 1.8 NW 30 35 16 19 1022.3 1022.1 0.0
13/01:00am 16.3 12.3 13.0 81 1.8 NW 26 33 14 18 1022.4 1022.2 0.0
13/12:30am 16.6 13.0 13.1 80 2.0 NW 24 28 13 15 1022.7 1022.5 0.0
13/12:00am 16.7 13.5 13.0 79 2.1 NW 22 28 12 15 1023.0 1022.8 0.0
 
Date/Time
EST
Temp
°C
App
Temp
°C
Dew
Point
°C
Rel
Hum
%
Delta-T
°C
Wind Press
QNH
hPa
Press
MSL
hPa
Rain since
9am
mm
Dir  Spd
km/h
Gust
km/h
Spd
kts
Gust
kts
12/11:30pm 17.1 14.3 13.2 78 2.2 NW 20 22 11 12 1023.3 1023.1 0.0
12/11:00pm 17.2 14.6 13.1 77 2.3 NW 19 20 10 11 1023.6 1023.4 0.0
12/10:30pm 17.4 17.1 12.7 74 2.6 N 6 13 3 7 1023.9 1023.7 0.0
12/10:00pm 17.3 17.2 12.2 72 2.8 N 4 9 2 5 1024.0 1023.8 0.0
12/09:30pm 17.4 17.6 11.9 70 3.0 N 2 9 1 5 1024.2 1024.0 0.0
12/09:00pm 17.6 15.7 11.9 69 3.1 N 13 17 7 9 1024.4 1024.1 0.0
12/08:30pm 17.3 15.0 11.6 69 3.1 NNE 15 20 8 11 1024.4 1024.1 0.0
12/08:00pm 17.2 15.1 11.2 68 3.2 NE 13 17 7 9 1024.4 1024.1 0.0
12/07:30pm 17.6 15.3 11.9 69 3.1 ENE 15 19 8 10 1024.4 1024.1 0.0
12/07:00pm 17.7 14.6 12.2 70 3.0 E 20 24 11 13 1024.0 1023.8 0.0
12/06:30pm 17.7 14.8 12.2 70 3.0 E 19 24 10 13 1023.6 1023.4 0.0
12/06:00pm 17.5 14.5 11.8 69 3.1 E 19 24 10 13 1023.7 1023.5 0.0
12/05:30pm 17.8 14.8 12.0 69 3.2 E 19 20 10 11 1023.6 1023.4 0.0
12/05:00pm 18.2 15.6 12.0 67 3.4 E 17 22 9 12 1023.7 1023.5 0.0
12/04:30pm 18.4 15.3 12.2 67 3.5 E 20 24 11 13 1023.5 1023.3 0.0
12/04:00pm 18.5 15.0 12.3 67 3.4 ESE 22 28 12 15 1023.4 1023.2 0.0

Latest Capital City Observations: Canberra | Sydney | Melbourne | Brisbane | Adelaide | Perth | Hobart | Darwin

Other formats

Comma delimited format used in spreadsheet applications
http://www.bom.gov.au/fwo/IDQ60901/IDQ60901.94584.axf

JavaScript Object Notation format (JSON) in row-major order
http://www.bom.gov.au/fwo/IDQ60901/IDQ60901.94584.json

Data quality

Most of these data are generated automatically and are frequently updated. Quality checks on data are not normally performed. It is possible for incorrect values to appear. Refer to information at About Latest Weather Observations and please check the disclaimer before using these data.